sensor_id;sensor_type;location;lat;lon;timestamp;P1;durP1;ratioP1;P2;durP2;ratioP2
11854;SDS011;5987;53.140;8.904;2023-03-03T00:01:33;30.70;;;17.87;;
11854;SDS011;5987;53.140;8.904;2023-03-03T00:04:37;34.00;;;17.80;;
11854;SDS011;5987;53.140;8.904;2023-03-03T00:07:42;30.80;;;17.73;;
11854;SDS011;5987;53.140;8.904;2023-03-03T00:10:47;33.77;;;17.70;;
11854;SDS011;5987;53.140;8.904;2023-03-03T00:13:52;33.10;;;16.63;;
11854;SDS011;5987;53.140;8.904;2023-03-03T00:16:58;36.17;;;18.47;;
11854;SDS011;5987;53.140;8.904;2023-03-03T00:20:31;36.00;;;17.50;;
11854;SDS011;5987;53.140;8.904;2023-03-03T00:23:39;36.13;;;18.77;;
11854;SDS011;5987;53.140;8.904;2023-03-03T00:26:46;35.27;;;17.83;;
11854;SDS011;5987;53.140;8.904;2023-03-03T00:29:51;36.73;;;18.50;;
11854;SDS011;5987;53.140;8.904;2023-03-03T00:32:57;43.23;;;19.90;;
11854;SDS011;5987;53.140;8.904;2023-03-03T00:36:20;41.63;;;20.13;;
11854;SDS011;5987;53.140;8.904;2023-03-03T00:39:38;41.93;;;20.87;;
11854;SDS011;5987;53.140;8.904;2023-03-03T00:42:45;47.83;;;21.27;;
11854;SDS011;5987;53.140;8.904;2023-03-03T00:45:53;48.47;;;21.77;;
11854;SDS011;5987;53.140;8.904;2023-03-03T00:48:58;45.37;;;20.83;;
11854;SDS011;5987;53.140;8.904;2023-03-03T00:52:02;40.77;;;20.43;;
11854;SDS011;5987;53.140;8.904;2023-03-03T00:55:15;48.10;;;21.23;;
11854;SDS011;5987;53.140;8.904;2023-03-03T00:58:20;53.07;;;21.50;;
11854;SDS011;5987;53.140;8.904;2023-03-03T01:01:26;52.20;;;20.87;;
11854;SDS011;5987;53.140;8.904;2023-03-03T01:04:29;47.50;;;22.90;;
11854;SDS011;5987;53.140;8.904;2023-03-03T01:07:33;45.13;;;20.70;;
11854;SDS011;5987;53.140;8.904;2023-03-03T01:10:38;44.97;;;22.17;;
11854;SDS011;5987;53.140;8.904;2023-03-03T01:13:48;47.90;;;21.73;;
11854;SDS011;5987;53.140;8.904;2023-03-03T01:16:53;47.67;;;22.47;;
11854;SDS011;5987;53.140;8.904;2023-03-03T01:19:57;46.83;;;21.03;;
11854;SDS011;5987;53.140;8.904;2023-03-03T01:23:01;49.00;;;22.10;;
11854;SDS011;5987;53.140;8.904;2023-03-03T01:26:05;49.63;;;21.23;;
11854;SDS011;5987;53.140;8.904;2023-03-03T01:29:11;49.33;;;20.60;;
11854;SDS011;5987;53.140;8.904;2023-03-03T01:32:14;53.13;;;23.10;;
11854;SDS011;5987;53.140;8.904;2023-03-03T01:35:18;58.87;;;21.50;;
11854;SDS011;5987;53.140;8.904;2023-03-03T01:38:23;54.63;;;22.63;;
11854;SDS011;5987;53.140;8.904;2023-03-03T01:41:27;52.53;;;20.93;;
11854;SDS011;5987;53.140;8.904;2023-03-03T01:44:35;53.23;;;22.10;;
11854;SDS011;5987;53.140;8.904;2023-03-03T01:47:38;53.67;;;22.27;;
11854;SDS011;5987;53.140;8.904;2023-03-03T01:50:49;44.27;;;20.13;;
11854;SDS011;5987;53.140;8.904;2023-03-03T01:54:00;55.77;;;22.53;;
11854;SDS011;5987;53.140;8.904;2023-03-03T01:57:08;50.37;;;21.97;;
11854;SDS011;5987;53.140;8.904;2023-03-03T02:00:19;47.13;;;21.10;;
11854;SDS011;5987;53.140;8.904;2023-03-03T02:03:23;45.50;;;20.83;;
11854;SDS011;5987;53.140;8.904;2023-03-03T02:06:28;52.20;;;22.57;;
11854;SDS011;5987;53.140;8.904;2023-03-03T02:09:41;49.97;;;21.70;;
11854;SDS011;5987;53.140;8.904;2023-03-03T02:12:56;58.77;;;22.90;;
11854;SDS011;5987;53.140;8.904;2023-03-03T02:16:02;51.13;;;22.87;;
11854;SDS011;5987;53.140;8.904;2023-03-03T02:19:07;54.67;;;23.97;;
11854;SDS011;5987;53.140;8.904;2023-03-03T02:22:23;58.87;;;23.77;;
11854;SDS011;5987;53.140;8.904;2023-03-03T02:25:42;60.60;;;21.87;;
11854;SDS011;5987;53.140;8.904;2023-03-03T02:28:55;52.10;;;23.80;;
11854;SDS011;5987;53.140;8.904;2023-03-03T02:32:00;48.63;;;22.97;;
11854;SDS011;5987;53.140;8.904;2023-03-03T02:35:19;61.33;;;23.13;;
11854;SDS011;5987;53.140;8.904;2023-03-03T02:38:35;51.13;;;22.10;;
11854;SDS011;5987;53.140;8.904;2023-03-03T02:41:48;54.03;;;24.13;;
11854;SDS011;5987;53.140;8.904;2023-03-03T02:44:58;53.87;;;22.90;;
11854;SDS011;5987;53.140;8.904;2023-03-03T02:48:02;54.00;;;23.27;;
11854;SDS011;5987;53.140;8.904;2023-03-03T02:51:06;49.53;;;21.47;;
11854;SDS011;5987;53.140;8.904;2023-03-03T02:54:11;46.20;;;21.50;;
11854;SDS011;5987;53.140;8.904;2023-03-03T02:57:17;49.57;;;21.20;;
11854;SDS011;5987;53.140;8.904;2023-03-03T03:00:22;39.50;;;19.50;;
11854;SDS011;5987;53.140;8.904;2023-03-03T03:03:25;43.53;;;20.20;;
11854;SDS011;5987;53.140;8.904;2023-03-03T03:06:29;42.67;;;20.60;;
11854;SDS011;5987;53.140;8.904;2023-03-03T03:09:33;47.00;;;21.70;;
11854;SDS011;5987;53.140;8.904;2023-03-03T03:12:36;43.73;;;20.50;;
11854;SDS011;5987;53.140;8.904;2023-03-03T03:15:42;46.70;;;22.20;;
11854;SDS011;5987;53.140;8.904;2023-03-03T03:18:48;46.07;;;20.47;;
11854;SDS011;5987;53.140;8.904;2023-03-03T03:21:52;53.77;;;22.70;;
11854;SDS011;5987;53.140;8.904;2023-03-03T03:24:55;50.00;;;21.90;;
11854;SDS011;5987;53.140;8.904;2023-03-03T03:27:59;46.70;;;23.13;;
11854;SDS011;5987;53.140;8.904;2023-03-03T03:31:05;55.13;;;22.37;;
11854;SDS011;5987;53.140;8.904;2023-03-03T03:34:11;50.37;;;20.93;;
11854;SDS011;5987;53.140;8.904;2023-03-03T03:37:14;51.77;;;23.57;;
11854;SDS011;5987;53.140;8.904;2023-03-03T03:40:18;48.57;;;22.60;;
11854;SDS011;5987;53.140;8.904;2023-03-03T03:43:22;52.60;;;22.60;;
11854;SDS011;5987;53.140;8.904;2023-03-03T03:46:28;54.50;;;22.17;;
11854;SDS011;5987;53.140;8.904;2023-03-03T03:49:31;63.03;;;23.27;;
11854;SDS011;5987;53.140;8.904;2023-03-03T03:52:35;56.33;;;23.50;;
11854;SDS011;5987;53.140;8.904;2023-03-03T03:55:39;63.17;;;23.83;;
11854;SDS011;5987;53.140;8.904;2023-03-03T03:58:43;61.63;;;25.70;;
11854;SDS011;5987;53.140;8.904;2023-03-03T04:01:48;72.43;;;27.13;;
11854;SDS011;5987;53.140;8.904;2023-03-03T04:04:52;77.10;;;27.27;;
11854;SDS011;5987;53.140;8.904;2023-03-03T04:07:56;68.07;;;27.50;;
11854;SDS011;5987;53.140;8.904;2023-03-03T04:10:59;64.80;;;24.43;;
11854;SDS011;5987;53.140;8.904;2023-03-03T04:14:03;65.33;;;26.10;;
11854;SDS011;5987;53.140;8.904;2023-03-03T04:17:08;73.30;;;28.20;;
11854;SDS011;5987;53.140;8.904;2023-03-03T04:20:18;75.93;;;27.27;;
11854;SDS011;5987;53.140;8.904;2023-03-03T04:23:22;84.37;;;30.17;;
11854;SDS011;5987;53.140;8.904;2023-03-03T04:26:26;74.43;;;28.07;;
11854;SDS011;5987;53.140;8.904;2023-03-03T04:29:29;74.70;;;29.60;;
11854;SDS011;5987;53.140;8.904;2023-03-03T04:32:34;80.03;;;29.80;;
11854;SDS011;5987;53.140;8.904;2023-03-03T04:35:38;74.90;;;28.70;;
11854;SDS011;5987;53.140;8.904;2023-03-03T04:38:42;70.67;;;27.63;;
11854;SDS011;5987;53.140;8.904;2023-03-03T04:41:45;72.73;;;26.93;;
11854;SDS011;5987;53.140;8.904;2023-03-03T04:44:49;68.27;;;25.33;;
11854;SDS011;5987;53.140;8.904;2023-03-03T04:47:54;54.90;;;24.40;;
11854;SDS011;5987;53.140;8.904;2023-03-03T04:50:58;56.10;;;22.17;;
11854;SDS011;5987;53.140;8.904;2023-03-03T04:54:02;60.07;;;24.07;;
11854;SDS011;5987;53.140;8.904;2023-03-03T04:57:06;61.03;;;22.87;;
11854;SDS011;5987;53.140;8.904;2023-03-03T05:00:11;47.13;;;20.53;;
11854;SDS011;5987;53.140;8.904;2023-03-03T05:03:17;48.47;;;21.13;;
11854;SDS011;5987;53.140;8.904;2023-03-03T05:06:21;50.93;;;21.63;;
11854;SDS011;5987;53.140;8.904;2023-03-03T05:09:25;47.63;;;20.67;;
11854;SDS011;5987;53.140;8.904;2023-03-03T05:12:29;48.77;;;20.37;;
11854;SDS011;5987;53.140;8.904;2023-03-03T05:15:33;44.63;;;19.23;;
11854;SDS011;5987;53.140;8.904;2023-03-03T05:18:38;51.47;;;20.77;;
11854;SDS011;5987;53.140;8.904;2023-03-03T05:21:42;45.63;;;19.67;;
11854;SDS011;5987;53.140;8.904;2023-03-03T05:24:46;49.00;;;19.20;;
11854;SDS011;5987;53.140;8.904;2023-03-03T05:27:50;54.10;;;19.27;;
11854;SDS011;5987;53.140;8.904;2023-03-03T05:30:55;40.00;;;17.97;;
11854;SDS011;5987;53.140;8.904;2023-03-03T05:34:00;39.93;;;16.83;;
11854;SDS011;5987;53.140;8.904;2023-03-03T05:37:04;45.90;;;18.87;;
11854;SDS011;5987;53.140;8.904;2023-03-03T05:40:08;42.90;;;16.63;;
11854;SDS011;5987;53.140;8.904;2023-03-03T05:43:13;37.23;;;16.70;;
11854;SDS011;5987;53.140;8.904;2023-03-03T05:46:17;40.10;;;17.17;;
11854;SDS011;5987;53.140;8.904;2023-03-03T05:49:22;38.77;;;16.87;;
11854;SDS011;5987;53.140;8.904;2023-03-03T05:52:26;42.90;;;17.10;;
11854;SDS011;5987;53.140;8.904;2023-03-03T05:55:30;41.83;;;16.40;;
11854;SDS011;5987;53.140;8.904;2023-03-03T05:58:34;42.23;;;18.23;;
11854;SDS011;5987;53.140;8.904;2023-03-03T06:01:37;37.90;;;17.03;;
11854;SDS011;5987;53.140;8.904;2023-03-03T06:04:42;41.40;;;18.40;;
11854;SDS011;5987;53.140;8.904;2023-03-03T06:07:46;41.03;;;16.13;;
11854;SDS011;5987;53.140;8.904;2023-03-03T06:10:50;33.90;;;16.80;;
11854;SDS011;5987;53.140;8.904;2023-03-03T06:13:53;34.17;;;16.73;;
11854;SDS011;5987;53.140;8.904;2023-03-03T06:16:57;34.83;;;14.93;;
11854;SDS011;5987;53.140;8.904;2023-03-03T06:20:02;35.97;;;15.63;;
11854;SDS011;5987;53.140;8.904;2023-03-03T06:23:08;38.97;;;16.03;;
11854;SDS011;5987;53.140;8.904;2023-03-03T06:26:11;34.93;;;16.37;;
11854;SDS011;5987;53.140;8.904;2023-03-03T06:29:15;33.13;;;14.87;;
11854;SDS011;5987;53.140;8.904;2023-03-03T06:32:19;40.43;;;16.70;;
11854;SDS011;5987;53.140;8.904;2023-03-03T06:35:24;41.87;;;16.00;;
11854;SDS011;5987;53.140;8.904;2023-03-03T06:38:27;42.93;;;17.13;;
11854;SDS011;5987;53.140;8.904;2023-03-03T06:41:31;46.63;;;18.10;;
11854;SDS011;5987;53.140;8.904;2023-03-03T06:44:35;44.43;;;18.73;;
11854;SDS011;5987;53.140;8.904;2023-03-03T06:47:39;48.83;;;17.60;;
11854;SDS011;5987;53.140;8.904;2023-03-03T06:50:44;45.87;;;18.00;;
11854;SDS011;5987;53.140;8.904;2023-03-03T06:53:48;38.97;;;17.63;;
11854;SDS011;5987;53.140;8.904;2023-03-03T06:56:56;37.03;;;16.93;;
11854;SDS011;5987;53.140;8.904;2023-03-03T07:00:18;42.10;;;17.27;;
11854;SDS011;5987;53.140;8.904;2023-03-03T07:03:31;38.90;;;16.73;;
11854;SDS011;5987;53.140;8.904;2023-03-03T07:06:38;37.60;;;16.13;;
11854;SDS011;5987;53.140;8.904;2023-03-03T07:09:43;37.50;;;17.50;;
11854;SDS011;5987;53.140;8.904;2023-03-03T07:12:48;46.87;;;18.27;;
11854;SDS011;5987;53.140;8.904;2023-03-03T07:15:52;40.17;;;18.23;;
11854;SDS011;5987;53.140;8.904;2023-03-03T07:18:58;38.30;;;17.87;;
11854;SDS011;5987;53.140;8.904;2023-03-03T07:22:10;43.70;;;18.27;;
11854;SDS011;5987;53.140;8.904;2023-03-03T07:25:19;43.37;;;19.60;;
11854;SDS011;5987;53.140;8.904;2023-03-03T07:28:32;40.50;;;18.10;;
11854;SDS011;5987;53.140;8.904;2023-03-03T07:31:36;44.83;;;19.93;;
11854;SDS011;5987;53.140;8.904;2023-03-03T07:34:46;40.83;;;18.37;;
11854;SDS011;5987;53.140;8.904;2023-03-03T07:37:53;38.33;;;16.03;;
11854;SDS011;5987;53.140;8.904;2023-03-03T07:40:58;33.00;;;16.20;;
11854;SDS011;5987;53.140;8.904;2023-03-03T07:44:04;36.60;;;17.43;;
11854;SDS011;5987;53.140;8.904;2023-03-03T07:47:17;27.90;;;13.80;;
11854;SDS011;5987;53.140;8.904;2023-03-03T07:50:24;29.13;;;13.77;;
11854;SDS011;5987;53.140;8.904;2023-03-03T07:53:30;36.53;;;15.27;;
11854;SDS011;5987;53.140;8.904;2023-03-03T07:56:38;28.40;;;14.20;;
11854;SDS011;5987;53.140;8.904;2023-03-03T07:59:45;39.40;;;16.47;;
11854;SDS011;5987;53.140;8.904;2023-03-03T08:02:51;36.57;;;16.87;;
11854;SDS011;5987;53.140;8.904;2023-03-03T08:06:04;26.57;;;13.73;;
11854;SDS011;5987;53.140;8.904;2023-03-03T08:09:43;21.87;;;10.80;;
11854;SDS011;5987;53.140;8.904;2023-03-03T08:12:51;27.10;;;11.50;;
11854;SDS011;5987;53.140;8.904;2023-03-03T08:15:57;23.03;;;11.07;;
11854;SDS011;5987;53.140;8.904;2023-03-03T08:19:19;17.63;;;9.53;;
11854;SDS011;5987;53.140;8.904;2023-03-03T08:22:24;17.00;;;9.00;;
11854;SDS011;5987;53.140;8.904;2023-03-03T08:25:38;15.70;;;8.77;;
11854;SDS011;5987;53.140;8.904;2023-03-03T08:28:42;16.57;;;8.90;;
11854;SDS011;5987;53.140;8.904;2023-03-03T08:31:47;14.83;;;8.73;;
11854;SDS011;5987;53.140;8.904;2023-03-03T08:34:50;18.50;;;8.37;;
11854;SDS011;5987;53.140;8.904;2023-03-03T08:37:54;12.77;;;7.67;;
11854;SDS011;5987;53.140;8.904;2023-03-03T08:40:59;12.57;;;7.33;;
11854;SDS011;5987;53.140;8.904;2023-03-03T08:44:03;14.10;;;7.43;;
11854;SDS011;5987;53.140;8.904;2023-03-03T08:47:07;12.80;;;8.10;;
11854;SDS011;5987;53.140;8.904;2023-03-03T08:50:11;10.47;;;7.30;;
11854;SDS011;5987;53.140;8.904;2023-03-03T08:53:16;11.67;;;7.10;;
11854;SDS011;5987;53.140;8.904;2023-03-03T08:56:22;13.73;;;7.17;;
11854;SDS011;5987;53.140;8.904;2023-03-03T08:59:26;12.17;;;7.77;;
11854;SDS011;5987;53.140;8.904;2023-03-03T09:02:30;13.77;;;8.20;;
11854;SDS011;5987;53.140;8.904;2023-03-03T09:05:35;13.23;;;7.30;;
11854;SDS011;5987;53.140;8.904;2023-03-03T09:08:41;15.40;;;7.63;;
11854;SDS011;5987;53.140;8.904;2023-03-03T09:11:46;16.20;;;7.73;;
11854;SDS011;5987;53.140;8.904;2023-03-03T09:14:50;11.30;;;7.03;;
11854;SDS011;5987;53.140;8.904;2023-03-03T09:17:55;13.70;;;7.00;;
11854;SDS011;5987;53.140;8.904;2023-03-03T09:21:05;10.87;;;5.97;;
11854;SDS011;5987;53.140;8.904;2023-03-03T09:24:24;10.63;;;6.07;;
11854;SDS011;5987;53.140;8.904;2023-03-03T09:27:33;7.50;;;4.63;;
11854;SDS011;5987;53.140;8.904;2023-03-03T09:30:39;9.60;;;5.07;;
11854;SDS011;5987;53.140;8.904;2023-03-03T09:33:49;11.43;;;5.70;;
11854;SDS011;5987;53.140;8.904;2023-03-03T09:36:58;13.03;;;5.40;;
11854;SDS011;5987;53.140;8.904;2023-03-03T09:40:06;11.20;;;5.80;;
11854;SDS011;5987;53.140;8.904;2023-03-03T09:43:53;11.20;;;5.47;;
11854;SDS011;5987;53.140;8.904;2023-03-03T09:47:27;7.40;;;3.97;;
11854;SDS011;5987;53.140;8.904;2023-03-03T09:50:47;8.90;;;5.27;;
11854;SDS011;5987;53.140;8.904;2023-03-03T09:54:04;7.87;;;4.17;;
11854;SDS011;5987;53.140;8.904;2023-03-03T09:57:46;11.67;;;5.17;;
11854;SDS011;5987;53.140;8.904;2023-03-03T10:01:18;8.97;;;4.50;;
11854;SDS011;5987;53.140;8.904;2023-03-03T10:08:19;10.37;;;5.20;;
11854;SDS011;5987;53.140;8.904;2023-03-03T10:11:45;14.63;;;4.97;;
11854;SDS011;5987;53.140;8.904;2023-03-03T10:15:03;7.83;;;4.23;;
11854;SDS011;5987;53.140;8.904;2023-03-03T10:18:32;7.20;;;4.03;;
11854;SDS011;5987;53.140;8.904;2023-03-03T10:21:45;5.03;;;3.90;;
11854;SDS011;5987;53.140;8.904;2023-03-03T10:25:03;7.07;;;4.07;;
11854;SDS011;5987;53.140;8.904;2023-03-03T10:28:26;7.07;;;4.10;;
11854;SDS011;5987;53.140;8.904;2023-03-03T10:32:01;6.03;;;3.80;;
11854;SDS011;5987;53.140;8.904;2023-03-03T10:35:47;7.33;;;4.53;;
11854;SDS011;5987;53.140;8.904;2023-03-03T10:39:43;11.67;;;5.10;;
11854;SDS011;5987;53.140;8.904;2023-03-03T10:46:54;11.67;;;4.73;;
11854;SDS011;5987;53.140;8.904;2023-03-03T10:50:30;11.37;;;5.50;;
11854;SDS011;5987;53.140;8.904;2023-03-03T10:53:48;8.73;;;5.40;;
11854;SDS011;5987;53.140;8.904;2023-03-03T10:57:09;9.13;;;5.67;;
11854;SDS011;5987;53.140;8.904;2023-03-03T11:00:26;11.40;;;6.40;;
11854;SDS011;5987;53.140;8.904;2023-03-03T11:03:58;11.13;;;6.43;;
11854;SDS011;5987;53.140;8.904;2023-03-03T11:07:32;10.07;;;5.90;;
11854;SDS011;5987;53.140;8.904;2023-03-03T11:10:50;13.03;;;6.93;;
11854;SDS011;5987;53.140;8.904;2023-03-03T11:14:02;13.80;;;7.90;;
11854;SDS011;5987;53.140;8.904;2023-03-03T11:17:15;10.07;;;5.97;;
11854;SDS011;5987;53.140;8.904;2023-03-03T11:20:34;10.33;;;6.93;;
11854;SDS011;5987;53.140;8.904;2023-03-03T11:23:49;11.50;;;6.50;;
11854;SDS011;5987;53.140;8.904;2023-03-03T11:30:47;7.00;;;4.33;;
11854;SDS011;5987;53.140;8.904;2023-03-03T11:34:12;7.37;;;4.17;;
11854;SDS011;5987;53.140;8.904;2023-03-03T11:37:34;9.90;;;3.90;;
11854;SDS011;5987;53.140;8.904;2023-03-03T11:40:47;6.97;;;3.87;;
11854;SDS011;5987;53.140;8.904;2023-03-03T11:44:01;8.03;;;2.87;;
11854;SDS011;5987;53.140;8.904;2023-03-03T11:47:24;6.53;;;3.70;;
11854;SDS011;5987;53.140;8.904;2023-03-03T11:50:35;4.97;;;2.90;;
11854;SDS011;5987;53.140;8.904;2023-03-03T11:53:56;4.13;;;2.60;;
11854;SDS011;5987;53.140;8.904;2023-03-03T11:57:11;5.93;;;2.53;;
11854;SDS011;5987;53.140;8.904;2023-03-03T12:00:28;7.03;;;3.60;;
11854;SDS011;5987;53.140;8.904;2023-03-03T12:03:43;5.30;;;2.50;;
11854;SDS011;5987;53.140;8.904;2023-03-03T12:07:03;4.13;;;2.50;;
11854;SDS011;5987;53.140;8.904;2023-03-03T12:10:26;3.00;;;2.10;;
11854;SDS011;5987;53.140;8.904;2023-03-03T12:13:50;3.63;;;1.70;;
11854;SDS011;5987;53.140;8.904;2023-03-03T12:17:02;6.40;;;1.80;;
11854;SDS011;5987;53.140;8.904;2023-03-03T12:20:21;4.23;;;1.60;;
11854;SDS011;5987;53.140;8.904;2023-03-03T12:23:39;3.60;;;2.30;;
11854;SDS011;5987;53.140;8.904;2023-03-03T12:27:01;5.77;;;2.83;;
11854;SDS011;5987;53.140;8.904;2023-03-03T12:30:19;4.43;;;2.60;;
11854;SDS011;5987;53.140;8.904;2023-03-03T12:33:38;6.13;;;2.73;;
11854;SDS011;5987;53.140;8.904;2023-03-03T12:40:31;6.60;;;3.70;;
11854;SDS011;5987;53.140;8.904;2023-03-03T12:43:50;4.77;;;2.77;;
11854;SDS011;5987;53.140;8.904;2023-03-03T12:47:05;7.57;;;2.80;;
11854;SDS011;5987;53.140;8.904;2023-03-03T12:50:24;9.10;;;3.20;;
11854;SDS011;5987;53.140;8.904;2023-03-03T12:53:44;4.43;;;3.00;;
11854;SDS011;5987;53.140;8.904;2023-03-03T12:57:12;4.83;;;3.23;;
11854;SDS011;5987;53.140;8.904;2023-03-03T13:00:27;4.50;;;3.10;;
11854;SDS011;5987;53.140;8.904;2023-03-03T13:03:44;7.37;;;3.87;;
11854;SDS011;5987;53.140;8.904;2023-03-03T13:07:03;6.23;;;5.00;;
11854;SDS011;5987;53.140;8.904;2023-03-03T13:10:18;7.30;;;6.23;;
11854;SDS011;5987;53.140;8.904;2023-03-03T13:13:35;10.40;;;7.50;;
11854;SDS011;5987;53.140;8.904;2023-03-03T13:16:52;8.50;;;6.90;;
11854;SDS011;5987;53.140;8.904;2023-03-03T13:20:13;10.37;;;6.10;;
11854;SDS011;5987;53.140;8.904;2023-03-03T13:23:35;5.73;;;3.27;;
11854;SDS011;5987;53.140;8.904;2023-03-03T13:26:52;4.43;;;2.73;;
11854;SDS011;5987;53.140;8.904;2023-03-03T13:30:02;4.07;;;2.13;;
11854;SDS011;5987;53.140;8.904;2023-03-03T13:33:19;3.10;;;1.60;;
11854;SDS011;5987;53.140;8.904;2023-03-03T13:36:29;9.00;;;2.00;;
11854;SDS011;5987;53.140;8.904;2023-03-03T13:39:47;5.63;;;2.00;;
11854;SDS011;5987;53.140;8.904;2023-03-03T13:43:01;2.87;;;1.47;;
11854;SDS011;5987;53.140;8.904;2023-03-03T13:46:15;4.03;;;1.43;;
11854;SDS011;5987;53.140;8.904;2023-03-03T13:49:38;5.63;;;2.23;;
11854;SDS011;5987;53.140;8.904;2023-03-03T13:53:01;4.17;;;1.80;;
11854;SDS011;5987;53.140;8.904;2023-03-03T13:56:41;2.33;;;1.83;;
11854;SDS011;5987;53.140;8.904;2023-03-03T14:00:11;2.93;;;1.40;;
11854;SDS011;5987;53.140;8.904;2023-03-03T14:03:37;2.43;;;1.47;;
11854;SDS011;5987;53.140;8.904;2023-03-03T14:06:58;3.40;;;2.03;;
11854;SDS011;5987;53.140;8.904;2023-03-03T14:10:16;9.47;;;2.27;;
11854;SDS011;5987;53.140;8.904;2023-03-03T14:13:30;2.43;;;1.63;;
11854;SDS011;5987;53.140;8.904;2023-03-03T14:16:47;4.30;;;1.80;;
11854;SDS011;5987;53.140;8.904;2023-03-03T14:19:59;3.33;;;1.70;;
11854;SDS011;5987;53.140;8.904;2023-03-03T14:23:21;5.10;;;1.50;;
11854;SDS011;5987;53.140;8.904;2023-03-03T14:26:44;1.43;;;1.30;;
11854;SDS011;5987;53.140;8.904;2023-03-03T14:29:51;4.17;;;1.30;;
11854;SDS011;5987;53.140;8.904;2023-03-03T14:32:59;3.03;;;1.33;;
11854;SDS011;5987;53.140;8.904;2023-03-03T14:36:19;1.93;;;1.67;;
11854;SDS011;5987;53.140;8.904;2023-03-03T14:39:32;4.00;;;1.80;;
11854;SDS011;5987;53.140;8.904;2023-03-03T14:42:39;3.07;;;1.60;;
11854;SDS011;5987;53.140;8.904;2023-03-03T14:45:52;2.50;;;2.23;;
11854;SDS011;5987;53.140;8.904;2023-03-03T14:48:57;4.13;;;2.67;;
11854;SDS011;5987;53.140;8.904;2023-03-03T14:52:08;3.80;;;2.07;;
11854;SDS011;5987;53.140;8.904;2023-03-03T14:55:29;4.67;;;1.80;;
11854;SDS011;5987;53.140;8.904;2023-03-03T14:58:37;4.10;;;1.97;;
11854;SDS011;5987;53.140;8.904;2023-03-03T15:01:45;5.23;;;1.90;;
11854;SDS011;5987;53.140;8.904;2023-03-03T15:05:17;2.50;;;1.90;;
11854;SDS011;5987;53.140;8.904;2023-03-03T15:08:29;3.03;;;1.90;;
11854;SDS011;5987;53.140;8.904;2023-03-03T15:11:36;4.67;;;2.00;;
11854;SDS011;5987;53.140;8.904;2023-03-03T15:14:42;3.10;;;1.90;;
11854;SDS011;5987;53.140;8.904;2023-03-03T15:17:55;4.07;;;2.13;;
11854;SDS011;5987;53.140;8.904;2023-03-03T15:21:03;6.13;;;2.30;;
11854;SDS011;5987;53.140;8.904;2023-03-03T15:24:11;3.30;;;2.33;;
11854;SDS011;5987;53.140;8.904;2023-03-03T15:27:27;4.13;;;2.40;;
11854;SDS011;5987;53.140;8.904;2023-03-03T15:30:38;2.67;;;2.23;;
11854;SDS011;5987;53.140;8.904;2023-03-03T15:33:57;5.60;;;2.83;;
11854;SDS011;5987;53.140;8.904;2023-03-03T15:37:17;4.80;;;2.53;;
11854;SDS011;5987;53.140;8.904;2023-03-03T15:40:36;4.87;;;2.60;;
11854;SDS011;5987;53.140;8.904;2023-03-03T15:43:52;8.03;;;3.40;;
11854;SDS011;5987;53.140;8.904;2023-03-03T15:47:14;5.57;;;3.10;;
11854;SDS011;5987;53.140;8.904;2023-03-03T15:50:41;4.00;;;2.73;;
11854;SDS011;5987;53.140;8.904;2023-03-03T15:54:11;6.53;;;2.67;;
11854;SDS011;5987;53.140;8.904;2023-03-03T15:57:40;5.17;;;2.70;;
11854;SDS011;5987;53.140;8.904;2023-03-03T16:01:05;4.00;;;3.20;;
11854;SDS011;5987;53.140;8.904;2023-03-03T16:04:19;9.00;;;3.53;;
11854;SDS011;5987;53.140;8.904;2023-03-03T16:07:35;7.80;;;3.13;;
11854;SDS011;5987;53.140;8.904;2023-03-03T16:11:00;5.83;;;3.40;;
11854;SDS011;5987;53.140;8.904;2023-03-03T16:14:20;8.47;;;3.60;;
11854;SDS011;5987;53.140;8.904;2023-03-03T16:17:51;3.93;;;3.03;;
11854;SDS011;5987;53.140;8.904;2023-03-03T16:21:07;7.53;;;3.13;;
11854;SDS011;5987;53.140;8.904;2023-03-03T16:24:28;4.30;;;2.50;;
11854;SDS011;5987;53.140;8.904;2023-03-03T16:27:46;5.63;;;2.30;;
11854;SDS011;5987;53.140;8.904;2023-03-03T16:31:00;3.30;;;2.10;;
11854;SDS011;5987;53.140;8.904;2023-03-03T16:34:13;6.17;;;3.27;;
11854;SDS011;5987;53.140;8.904;2023-03-03T16:37:25;3.73;;;2.00;;
11854;SDS011;5987;53.140;8.904;2023-03-03T16:40:37;2.93;;;2.20;;
11854;SDS011;5987;53.140;8.904;2023-03-03T16:43:53;3.13;;;2.57;;
11854;SDS011;5987;53.140;8.904;2023-03-03T16:47:11;6.30;;;2.50;;
11854;SDS011;5987;53.140;8.904;2023-03-03T16:50:36;2.83;;;1.90;;
11854;SDS011;5987;53.140;8.904;2023-03-03T16:53:51;5.67;;;2.00;;
11854;SDS011;5987;53.140;8.904;2023-03-03T16:57:07;3.13;;;1.70;;
11854;SDS011;5987;53.140;8.904;2023-03-03T17:00:27;6.27;;;2.17;;
11854;SDS011;5987;53.140;8.904;2023-03-03T17:03:33;6.20;;;1.93;;
11854;SDS011;5987;53.140;8.904;2023-03-03T17:07:01;5.40;;;1.70;;
11854;SDS011;5987;53.140;8.904;2023-03-03T17:10:23;4.10;;;1.70;;
11854;SDS011;5987;53.140;8.904;2023-03-03T17:13:43;4.77;;;2.43;;
11854;SDS011;5987;53.140;8.904;2023-03-03T17:17:16;7.13;;;2.47;;
11854;SDS011;5987;53.140;8.904;2023-03-03T17:20:33;9.10;;;2.63;;
11854;SDS011;5987;53.140;8.904;2023-03-03T17:23:49;15.67;;;3.63;;
11854;SDS011;5987;53.140;8.904;2023-03-03T17:27:18;12.20;;;2.40;;
11854;SDS011;5987;53.140;8.904;2023-03-03T17:30:38;9.37;;;2.23;;
11854;SDS011;5987;53.140;8.904;2023-03-03T17:34:00;11.40;;;2.43;;
11854;SDS011;5987;53.140;8.904;2023-03-03T17:37:20;9.13;;;2.23;;
11854;SDS011;5987;53.140;8.904;2023-03-03T17:40:41;9.17;;;2.30;;
11854;SDS011;5987;53.140;8.904;2023-03-03T17:44:01;11.73;;;2.50;;
11854;SDS011;5987;53.140;8.904;2023-03-03T17:47:21;7.53;;;2.27;;
11854;SDS011;5987;53.140;8.904;2023-03-03T17:50:49;22.93;;;3.50;;
11854;SDS011;5987;53.140;8.904;2023-03-03T17:54:21;10.13;;;3.40;;
11854;SDS011;5987;53.140;8.904;2023-03-03T17:57:48;16.03;;;3.80;;
11854;SDS011;5987;53.140;8.904;2023-03-03T18:01:16;17.80;;;3.27;;
11854;SDS011;5987;53.140;8.904;2023-03-03T18:04:38;9.33;;;2.47;;
11854;SDS011;5987;53.140;8.904;2023-03-03T18:12:17;14.87;;;2.70;;
11854;SDS011;5987;53.140;8.904;2023-03-03T18:19:24;8.63;;;3.03;;
11854;SDS011;5987;53.140;8.904;2023-03-03T18:22:56;14.73;;;3.40;;
11854;SDS011;5987;53.140;8.904;2023-03-03T18:26:36;13.50;;;2.73;;
11854;SDS011;5987;53.140;8.904;2023-03-03T18:29:48;17.63;;;3.80;;
11854;SDS011;5987;53.140;8.904;2023-03-03T18:33:40;8.60;;;2.70;;
11854;SDS011;5987;53.140;8.904;2023-03-03T18:36:54;12.13;;;3.40;;
11854;SDS011;5987;53.140;8.904;2023-03-03T18:43:53;11.47;;;3.97;;
11854;SDS011;5987;53.140;8.904;2023-03-03T18:47:00;14.93;;;4.73;;
11854;SDS011;5987;53.140;8.904;2023-03-03T18:53:36;13.57;;;3.63;;
11854;SDS011;5987;53.140;8.904;2023-03-03T18:57:09;18.57;;;3.53;;
11854;SDS011;5987;53.140;8.904;2023-03-03T19:00:20;13.20;;;3.60;;
11854;SDS011;5987;53.140;8.904;2023-03-03T19:03:32;18.20;;;4.87;;
11854;SDS011;5987;53.140;8.904;2023-03-03T19:07:02;21.77;;;3.70;;
11854;SDS011;5987;53.140;8.904;2023-03-03T19:10:48;16.53;;;4.53;;
11854;SDS011;5987;53.140;8.904;2023-03-03T19:17:42;11.07;;;3.33;;
11854;SDS011;5987;53.140;8.904;2023-03-03T19:20:53;17.40;;;4.53;;
11854;SDS011;5987;53.140;8.904;2023-03-03T19:24:01;18.40;;;3.83;;
11854;SDS011;5987;53.140;8.904;2023-03-03T19:30:37;11.87;;;3.37;;
11854;SDS011;5987;53.140;8.904;2023-03-03T19:33:55;17.87;;;4.17;;
11854;SDS011;5987;53.140;8.904;2023-03-03T19:37:10;20.20;;;3.67;;
11854;SDS011;5987;53.140;8.904;2023-03-03T19:40:35;16.53;;;4.30;;
11854;SDS011;5987;53.140;8.904;2023-03-03T19:43:53;16.33;;;5.60;;
11854;SDS011;5987;53.140;8.904;2023-03-03T19:47:10;12.30;;;4.67;;
11854;SDS011;5987;53.140;8.904;2023-03-03T19:50:32;15.23;;;4.40;;
11854;SDS011;5987;53.140;8.904;2023-03-03T19:53:51;15.20;;;4.33;;
11854;SDS011;5987;53.140;8.904;2023-03-03T19:57:04;13.93;;;4.30;;